sensor_id;sensor_type;location;lat;lon;timestamp;P1;durP1;ratioP1;P2;durP2;ratioP2
37701;SDS011;23548;51.196;6.838;2023-05-21T00:01:45;20.75;;;14.13;;
37701;SDS011;23548;51.196;6.838;2023-05-21T00:04:13;17.73;;;13.73;;
37701;SDS011;23548;51.196;6.838;2023-05-21T00:06:39;16.58;;;13.25;;
37701;SDS011;23548;51.196;6.838;2023-05-21T00:09:05;16.73;;;12.43;;
37701;SDS011;23548;51.196;6.838;2023-05-21T00:11:32;18.42;;;13.00;;
37701;SDS011;23548;51.196;6.838;2023-05-21T00:13:57;18.10;;;12.88;;
37701;SDS011;23548;51.196;6.838;2023-05-21T00:16:23;16.10;;;12.05;;
37701;SDS011;23548;51.196;6.838;2023-05-21T00:18:49;16.42;;;12.02;;
37701;SDS011;23548;51.196;6.838;2023-05-21T00:21:18;17.83;;;11.52;;
37701;SDS011;23548;51.196;6.838;2023-05-21T00:23:50;16.98;;;11.80;;
37701;SDS011;23548;51.196;6.838;2023-05-21T00:26:18;15.90;;;11.68;;
37701;SDS011;23548;51.196;6.838;2023-05-21T00:28:45;14.73;;;11.27;;
37701;SDS011;23548;51.196;6.838;2023-05-21T00:31:11;14.88;;;12.15;;
37701;SDS011;23548;51.196;6.838;2023-05-21T00:33:37;14.05;;;10.82;;
37701;SDS011;23548;51.196;6.838;2023-05-21T00:36:02;17.15;;;11.57;;
37701;SDS011;23548;51.196;6.838;2023-05-21T00:38:30;16.52;;;11.75;;
37701;SDS011;23548;51.196;6.838;2023-05-21T00:40:58;15.27;;;11.02;;
37701;SDS011;23548;51.196;6.838;2023-05-21T00:43:25;19.30;;;12.35;;
37701;SDS011;23548;51.196;6.838;2023-05-21T00:45:51;17.30;;;11.27;;
37701;SDS011;23548;51.196;6.838;2023-05-21T00:48:17;16.30;;;11.70;;
37701;SDS011;23548;51.196;6.838;2023-05-21T00:50:44;15.07;;;11.15;;
37701;SDS011;23548;51.196;6.838;2023-05-21T00:53:10;16.05;;;11.82;;
37701;SDS011;23548;51.196;6.838;2023-05-21T00:55:39;14.77;;;11.48;;
37701;SDS011;23548;51.196;6.838;2023-05-21T00:58:05;15.40;;;11.63;;
37701;SDS011;23548;51.196;6.838;2023-05-21T01:00:32;18.95;;;11.52;;
37701;SDS011;23548;51.196;6.838;2023-05-21T01:02:59;17.25;;;11.48;;
37701;SDS011;23548;51.196;6.838;2023-05-21T01:05:38;15.60;;;12.20;;
37701;SDS011;23548;51.196;6.838;2023-05-21T01:08:05;15.63;;;12.00;;
37701;SDS011;23548;51.196;6.838;2023-05-21T01:10:31;19.55;;;11.98;;
37701;SDS011;23548;51.196;6.838;2023-05-21T01:12:57;16.85;;;12.57;;
37701;SDS011;23548;51.196;6.838;2023-05-21T01:15:23;19.20;;;12.02;;
37701;SDS011;23548;51.196;6.838;2023-05-21T01:17:51;20.95;;;12.25;;
37701;SDS011;23548;51.196;6.838;2023-05-21T01:20:18;21.05;;;13.82;;
37701;SDS011;23548;51.196;6.838;2023-05-21T01:22:50;19.25;;;13.50;;
37701;SDS011;23548;51.196;6.838;2023-05-21T01:25:20;19.80;;;13.82;;
37701;SDS011;23548;51.196;6.838;2023-05-21T01:27:47;19.33;;;13.50;;
37701;SDS011;23548;51.196;6.838;2023-05-21T01:30:13;21.20;;;14.35;;
37701;SDS011;23548;51.196;6.838;2023-05-21T01:32:41;20.25;;;14.50;;
37701;SDS011;23548;51.196;6.838;2023-05-21T01:35:16;19.27;;;13.52;;
37701;SDS011;23548;51.196;6.838;2023-05-21T01:37:57;19.38;;;13.70;;
37701;SDS011;23548;51.196;6.838;2023-05-21T01:40:35;20.92;;;14.20;;
37701;SDS011;23548;51.196;6.838;2023-05-21T01:43:16;23.02;;;14.80;;
37701;SDS011;23548;51.196;6.838;2023-05-21T01:45:43;24.60;;;14.73;;
37701;SDS011;23548;51.196;6.838;2023-05-21T01:48:11;16.95;;;13.55;;
37701;SDS011;23548;51.196;6.838;2023-05-21T01:50:39;19.48;;;13.85;;
37701;SDS011;23548;51.196;6.838;2023-05-21T01:53:07;25.02;;;15.27;;
37701;SDS011;23548;51.196;6.838;2023-05-21T01:55:33;20.23;;;14.73;;
37701;SDS011;23548;51.196;6.838;2023-05-21T01:58:03;22.23;;;14.77;;
37701;SDS011;23548;51.196;6.838;2023-05-21T02:00:29;20.10;;;15.10;;
37701;SDS011;23548;51.196;6.838;2023-05-21T02:02:56;18.40;;;14.07;;
37701;SDS011;23548;51.196;6.838;2023-05-21T02:05:22;21.13;;;14.60;;
37701;SDS011;23548;51.196;6.838;2023-05-21T02:07:48;20.85;;;13.85;;
37701;SDS011;23548;51.196;6.838;2023-05-21T02:10:16;23.67;;;14.93;;
37701;SDS011;23548;51.196;6.838;2023-05-21T02:12:42;22.48;;;14.35;;
37701;SDS011;23548;51.196;6.838;2023-05-21T02:15:07;20.73;;;15.38;;
37701;SDS011;23548;51.196;6.838;2023-05-21T02:17:34;18.45;;;14.35;;
37701;SDS011;23548;51.196;6.838;2023-05-21T02:20:00;21.80;;;14.65;;
37701;SDS011;23548;51.196;6.838;2023-05-21T02:22:45;19.75;;;14.50;;
37701;SDS011;23548;51.196;6.838;2023-05-21T02:25:12;20.98;;;13.88;;
37701;SDS011;23548;51.196;6.838;2023-05-21T02:27:40;23.10;;;14.75;;
37701;SDS011;23548;51.196;6.838;2023-05-21T02:30:07;22.00;;;14.50;;
37701;SDS011;23548;51.196;6.838;2023-05-21T02:32:37;20.80;;;14.32;;
37701;SDS011;23548;51.196;6.838;2023-05-21T02:35:07;19.98;;;13.60;;
37701;SDS011;23548;51.196;6.838;2023-05-21T02:37:34;22.10;;;14.75;;
37701;SDS011;23548;51.196;6.838;2023-05-21T02:40:02;19.30;;;14.07;;
37701;SDS011;23548;51.196;6.838;2023-05-21T02:42:30;20.73;;;14.35;;
37701;SDS011;23548;51.196;6.838;2023-05-21T02:44:56;19.08;;;14.52;;
37701;SDS011;23548;51.196;6.838;2023-05-21T02:47:21;18.42;;;13.85;;
37701;SDS011;23548;51.196;6.838;2023-05-21T02:49:48;19.20;;;13.75;;
37701;SDS011;23548;51.196;6.838;2023-05-21T02:52:15;18.80;;;13.18;;
37701;SDS011;23548;51.196;6.838;2023-05-21T02:54:44;18.75;;;13.15;;
37701;SDS011;23548;51.196;6.838;2023-05-21T02:57:10;19.25;;;14.02;;
37701;SDS011;23548;51.196;6.838;2023-05-21T02:59:37;19.67;;;13.70;;
37701;SDS011;23548;51.196;6.838;2023-05-21T03:02:02;16.48;;;12.82;;
37701;SDS011;23548;51.196;6.838;2023-05-21T03:04:28;17.17;;;13.73;;
37701;SDS011;23548;51.196;6.838;2023-05-21T03:06:54;17.88;;;13.18;;
37701;SDS011;23548;51.196;6.838;2023-05-21T03:09:21;17.83;;;13.00;;
37701;SDS011;23548;51.196;6.838;2023-05-21T03:11:47;17.00;;;12.70;;
37701;SDS011;23548;51.196;6.838;2023-05-21T03:14:13;17.33;;;12.98;;
37701;SDS011;23548;51.196;6.838;2023-05-21T03:16:39;18.55;;;12.55;;
37701;SDS011;23548;51.196;6.838;2023-05-21T03:19:06;17.27;;;12.45;;
37701;SDS011;23548;51.196;6.838;2023-05-21T03:21:32;14.90;;;12.02;;
37701;SDS011;23548;51.196;6.838;2023-05-21T03:23:58;16.73;;;12.38;;
37701;SDS011;23548;51.196;6.838;2023-05-21T03:26:27;15.30;;;12.07;;
37701;SDS011;23548;51.196;6.838;2023-05-21T03:28:54;16.88;;;12.82;;
37701;SDS011;23548;51.196;6.838;2023-05-21T03:31:21;21.23;;;13.45;;
37701;SDS011;23548;51.196;6.838;2023-05-21T03:33:47;17.50;;;13.07;;
37701;SDS011;23548;51.196;6.838;2023-05-21T03:36:13;18.27;;;13.00;;
37701;SDS011;23548;51.196;6.838;2023-05-21T03:38:39;16.05;;;12.45;;
37701;SDS011;23548;51.196;6.838;2023-05-21T03:41:05;16.60;;;12.57;;
37701;SDS011;23548;51.196;6.838;2023-05-21T03:43:32;19.30;;;13.77;;
37701;SDS011;23548;51.196;6.838;2023-05-21T03:45:58;15.93;;;12.98;;
37701;SDS011;23548;51.196;6.838;2023-05-21T03:48:23;17.17;;;12.35;;
37701;SDS011;23548;51.196;6.838;2023-05-21T03:50:49;18.10;;;12.55;;
37701;SDS011;23548;51.196;6.838;2023-05-21T03:53:18;15.80;;;12.45;;
37701;SDS011;23548;51.196;6.838;2023-05-21T03:55:44;16.92;;;12.60;;
37701;SDS011;23548;51.196;6.838;2023-05-21T03:58:11;19.02;;;13.57;;
37701;SDS011;23548;51.196;6.838;2023-05-21T04:00:36;15.77;;;12.80;;
37701;SDS011;23548;51.196;6.838;2023-05-21T04:03:03;16.80;;;12.80;;
37701;SDS011;23548;51.196;6.838;2023-05-21T04:05:28;17.80;;;12.90;;
37701;SDS011;23548;51.196;6.838;2023-05-21T04:07:55;15.30;;;13.25;;
37701;SDS011;23548;51.196;6.838;2023-05-21T04:10:22;15.98;;;12.48;;
37701;SDS011;23548;51.196;6.838;2023-05-21T04:12:48;17.27;;;13.10;;
37701;SDS011;23548;51.196;6.838;2023-05-21T04:15:16;22.00;;;13.85;;
37701;SDS011;23548;51.196;6.838;2023-05-21T04:17:45;17.25;;;11.70;;
37701;SDS011;23548;51.196;6.838;2023-05-21T04:20:11;17.25;;;12.38;;
37701;SDS011;23548;51.196;6.838;2023-05-21T04:22:38;18.40;;;13.15;;
37701;SDS011;23548;51.196;6.838;2023-05-21T04:25:04;15.20;;;12.52;;
37701;SDS011;23548;51.196;6.838;2023-05-21T04:27:30;15.55;;;12.70;;
37701;SDS011;23548;51.196;6.838;2023-05-21T04:29:56;15.90;;;12.85;;
37701;SDS011;23548;51.196;6.838;2023-05-21T04:32:22;17.70;;;12.73;;
37701;SDS011;23548;51.196;6.838;2023-05-21T04:34:48;16.20;;;12.65;;
37701;SDS011;23548;51.196;6.838;2023-05-21T04:37:14;18.40;;;12.10;;
37701;SDS011;23548;51.196;6.838;2023-05-21T04:39:43;17.10;;;12.75;;
37701;SDS011;23548;51.196;6.838;2023-05-21T04:42:09;18.60;;;12.40;;
37701;SDS011;23548;51.196;6.838;2023-05-21T04:44:35;14.32;;;11.82;;
37701;SDS011;23548;51.196;6.838;2023-05-21T04:47:02;14.82;;;12.13;;
37701;SDS011;23548;51.196;6.838;2023-05-21T04:49:28;15.73;;;12.63;;
37701;SDS011;23548;51.196;6.838;2023-05-21T04:51:54;14.20;;;12.38;;
37701;SDS011;23548;51.196;6.838;2023-05-21T04:54:20;14.07;;;12.25;;
37701;SDS011;23548;51.196;6.838;2023-05-21T04:56:46;19.55;;;12.50;;
37701;SDS011;23548;51.196;6.838;2023-05-21T04:59:12;16.17;;;12.55;;
37701;SDS011;23548;51.196;6.838;2023-05-21T05:01:38;16.17;;;12.65;;
37701;SDS011;23548;51.196;6.838;2023-05-21T05:04:05;20.38;;;12.65;;
37701;SDS011;23548;51.196;6.838;2023-05-21T05:06:30;17.15;;;13.07;;
37701;SDS011;23548;51.196;6.838;2023-05-21T05:08:56;16.45;;;12.05;;
37701;SDS011;23548;51.196;6.838;2023-05-21T05:11:22;17.77;;;11.73;;
37701;SDS011;23548;51.196;6.838;2023-05-21T05:13:48;15.68;;;11.80;;
37701;SDS011;23548;51.196;6.838;2023-05-21T05:16:14;17.52;;;11.93;;
37701;SDS011;23548;51.196;6.838;2023-05-21T05:18:41;17.90;;;12.63;;
37701;SDS011;23548;51.196;6.838;2023-05-21T05:21:07;15.77;;;12.48;;
37701;SDS011;23548;51.196;6.838;2023-05-21T05:23:33;16.17;;;12.20;;
37701;SDS011;23548;51.196;6.838;2023-05-21T05:25:59;14.18;;;12.02;;
37701;SDS011;23548;51.196;6.838;2023-05-21T05:28:24;16.48;;;12.00;;
37701;SDS011;23548;51.196;6.838;2023-05-21T05:30:50;16.02;;;12.10;;
37701;SDS011;23548;51.196;6.838;2023-05-21T05:33:16;15.50;;;11.30;;
37701;SDS011;23548;51.196;6.838;2023-05-21T05:35:42;14.95;;;11.60;;
37701;SDS011;23548;51.196;6.838;2023-05-21T05:38:07;16.38;;;12.15;;
37701;SDS011;23548;51.196;6.838;2023-05-21T05:40:33;16.67;;;12.55;;
37701;SDS011;23548;51.196;6.838;2023-05-21T05:42:59;17.33;;;11.73;;
37701;SDS011;23548;51.196;6.838;2023-05-21T05:45:25;16.10;;;12.02;;
37701;SDS011;23548;51.196;6.838;2023-05-21T05:47:51;22.10;;;13.23;;
37701;SDS011;23548;51.196;6.838;2023-05-21T05:50:17;13.40;;;11.65;;
37701;SDS011;23548;51.196;6.838;2023-05-21T05:52:43;18.42;;;12.02;;
37701;SDS011;23548;51.196;6.838;2023-05-21T05:55:09;14.50;;;11.98;;
37701;SDS011;23548;51.196;6.838;2023-05-21T05:57:36;17.88;;;13.10;;
37701;SDS011;23548;51.196;6.838;2023-05-21T06:00:02;15.98;;;13.30;;
37701;SDS011;23548;51.196;6.838;2023-05-21T06:02:29;16.63;;;12.40;;
37701;SDS011;23548;51.196;6.838;2023-05-21T06:04:55;16.48;;;12.38;;
37701;SDS011;23548;51.196;6.838;2023-05-21T06:07:22;15.57;;;12.38;;
37701;SDS011;23548;51.196;6.838;2023-05-21T06:09:48;16.60;;;12.63;;
37701;SDS011;23548;51.196;6.838;2023-05-21T06:12:14;17.33;;;13.07;;
37701;SDS011;23548;51.196;6.838;2023-05-21T06:14:40;16.45;;;12.98;;
37701;SDS011;23548;51.196;6.838;2023-05-21T06:17:06;19.02;;;12.82;;
37701;SDS011;23548;51.196;6.838;2023-05-21T06:19:33;16.35;;;13.35;;
37701;SDS011;23548;51.196;6.838;2023-05-21T06:21:59;16.42;;;12.93;;
37701;SDS011;23548;51.196;6.838;2023-05-21T06:24:25;19.02;;;13.18;;
37701;SDS011;23548;51.196;6.838;2023-05-21T06:26:51;15.85;;;12.68;;
37701;SDS011;23548;51.196;6.838;2023-05-21T06:29:16;16.98;;;12.98;;
37701;SDS011;23548;51.196;6.838;2023-05-21T06:31:42;16.65;;;12.63;;
37701;SDS011;23548;51.196;6.838;2023-05-21T06:34:08;17.45;;;13.05;;
37701;SDS011;23548;51.196;6.838;2023-05-21T06:36:35;15.93;;;13.20;;
37701;SDS011;23548;51.196;6.838;2023-05-21T06:39:01;19.33;;;13.13;;
37701;SDS011;23548;51.196;6.838;2023-05-21T06:41:27;16.08;;;12.63;;
37701;SDS011;23548;51.196;6.838;2023-05-21T06:43:53;17.00;;;12.60;;
37701;SDS011;23548;51.196;6.838;2023-05-21T06:46:20;15.20;;;13.35;;
37701;SDS011;23548;51.196;6.838;2023-05-21T06:48:46;15.68;;;12.65;;
37701;SDS011;23548;51.196;6.838;2023-05-21T06:51:12;16.88;;;13.02;;
37701;SDS011;23548;51.196;6.838;2023-05-21T06:53:38;16.73;;;13.20;;
37701;SDS011;23548;51.196;6.838;2023-05-21T06:56:04;14.75;;;13.18;;
37701;SDS011;23548;51.196;6.838;2023-05-21T06:58:29;14.35;;;12.82;;
37701;SDS011;23548;51.196;6.838;2023-05-21T07:00:59;20.27;;;12.73;;
37701;SDS011;23548;51.196;6.838;2023-05-21T07:03:25;14.90;;;13.07;;
37701;SDS011;23548;51.196;6.838;2023-05-21T07:05:55;19.13;;;13.52;;
37701;SDS011;23548;51.196;6.838;2023-05-21T07:08:22;14.68;;;13.05;;
37701;SDS011;23548;51.196;6.838;2023-05-21T07:10:48;17.25;;;13.30;;
37701;SDS011;23548;51.196;6.838;2023-05-21T07:13:14;17.88;;;13.20;;
37701;SDS011;23548;51.196;6.838;2023-05-21T07:15:41;17.33;;;13.23;;
37701;SDS011;23548;51.196;6.838;2023-05-21T07:18:06;17.25;;;13.18;;
37701;SDS011;23548;51.196;6.838;2023-05-21T07:20:32;18.25;;;13.98;;
37701;SDS011;23548;51.196;6.838;2023-05-21T07:22:58;17.27;;;13.73;;
37701;SDS011;23548;51.196;6.838;2023-05-21T07:25:24;17.50;;;13.32;;
37701;SDS011;23548;51.196;6.838;2023-05-21T07:27:50;18.13;;;13.23;;
37701;SDS011;23548;51.196;6.838;2023-05-21T07:30:15;16.45;;;13.10;;
37701;SDS011;23548;51.196;6.838;2023-05-21T07:32:42;15.50;;;13.45;;
37701;SDS011;23548;51.196;6.838;2023-05-21T07:35:08;16.23;;;13.55;;
37701;SDS011;23548;51.196;6.838;2023-05-21T07:37:33;17.00;;;13.73;;
37701;SDS011;23548;51.196;6.838;2023-05-21T07:39:59;21.85;;;13.52;;
37701;SDS011;23548;51.196;6.838;2023-05-21T07:42:25;16.95;;;13.35;;
37701;SDS011;23548;51.196;6.838;2023-05-21T07:44:51;18.23;;;13.35;;
37701;SDS011;23548;51.196;6.838;2023-05-21T07:47:17;18.30;;;13.80;;
37701;SDS011;23548;51.196;6.838;2023-05-21T07:49:43;16.55;;;13.45;;
37701;SDS011;23548;51.196;6.838;2023-05-21T07:52:08;21.23;;;13.55;;
37701;SDS011;23548;51.196;6.838;2023-05-21T07:54:34;17.02;;;13.70;;
37701;SDS011;23548;51.196;6.838;2023-05-21T07:57:00;15.13;;;12.82;;
37701;SDS011;23548;51.196;6.838;2023-05-21T07:59:27;16.35;;;13.98;;
37701;SDS011;23548;51.196;6.838;2023-05-21T08:01:53;16.92;;;13.93;;
37701;SDS011;23548;51.196;6.838;2023-05-21T08:04:18;16.15;;;13.75;;
37701;SDS011;23548;51.196;6.838;2023-05-21T08:06:44;15.15;;;13.18;;
37701;SDS011;23548;51.196;6.838;2023-05-21T08:09:10;15.80;;;13.73;;
37701;SDS011;23548;51.196;6.838;2023-05-21T08:11:36;15.45;;;13.50;;
37701;SDS011;23548;51.196;6.838;2023-05-21T08:14:02;17.00;;;13.27;;
37701;SDS011;23548;51.196;6.838;2023-05-21T08:16:28;16.92;;;14.05;;
37701;SDS011;23548;51.196;6.838;2023-05-21T08:18:54;19.05;;;13.80;;
37701;SDS011;23548;51.196;6.838;2023-05-21T08:21:21;18.52;;;13.70;;
37701;SDS011;23548;51.196;6.838;2023-05-21T08:23:47;17.60;;;13.30;;
37701;SDS011;23548;51.196;6.838;2023-05-21T08:26:12;18.20;;;14.05;;
37701;SDS011;23548;51.196;6.838;2023-05-21T08:28:41;19.42;;;14.52;;
37701;SDS011;23548;51.196;6.838;2023-05-21T08:31:07;19.85;;;14.02;;
37701;SDS011;23548;51.196;6.838;2023-05-21T08:33:36;18.55;;;13.73;;
37701;SDS011;23548;51.196;6.838;2023-05-21T08:36:03;16.60;;;13.48;;
37701;SDS011;23548;51.196;6.838;2023-05-21T08:38:32;19.15;;;13.98;;
37701;SDS011;23548;51.196;6.838;2023-05-21T08:40:59;18.83;;;14.90;;
37701;SDS011;23548;51.196;6.838;2023-05-21T08:43:30;20.20;;;14.60;;
37701;SDS011;23548;51.196;6.838;2023-05-21T08:45:56;17.63;;;14.70;;
37701;SDS011;23548;51.196;6.838;2023-05-21T08:48:26;19.23;;;14.27;;
37701;SDS011;23548;51.196;6.838;2023-05-21T08:50:54;22.70;;;15.23;;
37701;SDS011;23548;51.196;6.838;2023-05-21T08:53:20;18.95;;;14.75;;
37701;SDS011;23548;51.196;6.838;2023-05-21T08:55:47;22.60;;;15.13;;
37701;SDS011;23548;51.196;6.838;2023-05-21T08:58:15;19.80;;;14.40;;
37701;SDS011;23548;51.196;6.838;2023-05-21T09:00:42;19.00;;;14.30;;
37701;SDS011;23548;51.196;6.838;2023-05-21T09:03:09;22.50;;;14.98;;
37701;SDS011;23548;51.196;6.838;2023-05-21T09:05:42;20.65;;;15.18;;
37701;SDS011;23548;51.196;6.838;2023-05-21T09:10:39;20.15;;;15.98;;
37701;SDS011;23548;51.196;6.838;2023-05-21T09:13:15;18.60;;;15.27;;
37701;SDS011;23548;51.196;6.838;2023-05-21T09:15:43;19.15;;;15.70;;
37701;SDS011;23548;51.196;6.838;2023-05-21T09:18:10;18.45;;;14.52;;
37701;SDS011;23548;51.196;6.838;2023-05-21T09:20:36;18.92;;;15.77;;
37701;SDS011;23548;51.196;6.838;2023-05-21T09:23:03;20.88;;;15.75;;
37701;SDS011;23548;51.196;6.838;2023-05-21T09:25:31;20.55;;;15.52;;
37701;SDS011;23548;51.196;6.838;2023-05-21T09:27:57;17.05;;;14.80;;
37701;SDS011;23548;51.196;6.838;2023-05-21T09:30:24;25.48;;;16.60;;
37701;SDS011;23548;51.196;6.838;2023-05-21T09:32:56;20.73;;;15.55;;
37701;SDS011;23548;51.196;6.838;2023-05-21T09:35:22;20.98;;;15.57;;
37701;SDS011;23548;51.196;6.838;2023-05-21T09:37:49;22.38;;;16.50;;
37701;SDS011;23548;51.196;6.838;2023-05-21T09:40:20;19.58;;;15.55;;
37701;SDS011;23548;51.196;6.838;2023-05-21T09:42:51;19.70;;;15.73;;
37701;SDS011;23548;51.196;6.838;2023-05-21T09:47:45;18.10;;;15.63;;
37701;SDS011;23548;51.196;6.838;2023-05-21T09:50:12;22.63;;;15.65;;
37701;SDS011;23548;51.196;6.838;2023-05-21T09:52:51;21.80;;;15.30;;
37701;SDS011;23548;51.196;6.838;2023-05-21T09:55:17;17.75;;;14.98;;
37701;SDS011;23548;51.196;6.838;2023-05-21T09:57:46;22.00;;;15.65;;
37701;SDS011;23548;51.196;6.838;2023-05-21T10:00:18;23.05;;;16.65;;
37701;SDS011;23548;51.196;6.838;2023-05-21T10:02:52;19.30;;;15.60;;
37701;SDS011;23548;51.196;6.838;2023-05-21T10:05:19;19.83;;;16.50;;
37701;SDS011;23548;51.196;6.838;2023-05-21T10:07:50;21.90;;;16.23;;
37701;SDS011;23548;51.196;6.838;2023-05-21T10:10:19;20.40;;;16.38;;
37701;SDS011;23548;51.196;6.838;2023-05-21T10:12:57;22.13;;;15.73;;
37701;SDS011;23548;51.196;6.838;2023-05-21T10:15:46;18.58;;;16.40;;
37701;SDS011;23548;51.196;6.838;2023-05-21T10:18:17;20.58;;;16.77;;
37701;SDS011;23548;51.196;6.838;2023-05-21T10:20:45;22.65;;;16.05;;
37701;SDS011;23548;51.196;6.838;2023-05-21T10:23:11;21.70;;;17.20;;
37701;SDS011;23548;51.196;6.838;2023-05-21T10:25:38;20.15;;;15.45;;
37701;SDS011;23548;51.196;6.838;2023-05-21T10:28:05;19.73;;;15.32;;
37701;SDS011;23548;51.196;6.838;2023-05-21T10:30:32;20.23;;;16.05;;
37701;SDS011;23548;51.196;6.838;2023-05-21T10:33:00;20.73;;;16.08;;
37701;SDS011;23548;51.196;6.838;2023-05-21T10:35:26;19.15;;;16.52;;
37701;SDS011;23548;51.196;6.838;2023-05-21T10:37:53;19.23;;;16.27;;
37701;SDS011;23548;51.196;6.838;2023-05-21T10:40:21;19.83;;;16.38;;
37701;SDS011;23548;51.196;6.838;2023-05-21T10:56:47;21.92;;;15.50;;
37701;SDS011;23548;51.196;6.838;2023-05-21T10:59:35;24.45;;;17.75;;
37701;SDS011;23548;51.196;6.838;2023-05-21T11:02:10;20.58;;;17.23;;
37701;SDS011;23548;51.196;6.838;2023-05-21T11:04:39;20.42;;;17.15;;
37701;SDS011;23548;51.196;6.838;2023-05-21T11:07:09;20.70;;;16.00;;
37701;SDS011;23548;51.196;6.838;2023-05-21T11:09:36;19.15;;;16.75;;
37701;SDS011;23548;51.196;6.838;2023-05-21T11:12:03;21.00;;;16.77;;
37701;SDS011;23548;51.196;6.838;2023-05-21T11:14:36;22.58;;;19.15;;
37701;SDS011;23548;51.196;6.838;2023-05-21T11:19:39;23.05;;;19.05;;
37701;SDS011;23548;51.196;6.838;2023-05-21T11:24:46;24.55;;;18.58;;
37701;SDS011;23548;51.196;6.838;2023-05-21T11:27:12;21.08;;;16.92;;
37701;SDS011;23548;51.196;6.838;2023-05-21T11:29:53;21.02;;;17.27;;
37701;SDS011;23548;51.196;6.838;2023-05-21T11:32:20;28.00;;;18.60;;
37701;SDS011;23548;51.196;6.838;2023-05-21T11:34:48;26.00;;;18.45;;
37701;SDS011;23548;51.196;6.838;2023-05-21T11:39:53;23.92;;;18.30;;
37701;SDS011;23548;51.196;6.838;2023-05-21T11:42:33;22.00;;;18.55;;
37701;SDS011;23548;51.196;6.838;2023-05-21T11:45:04;22.92;;;19.00;;
37701;SDS011;23548;51.196;6.838;2023-05-21T11:47:30;24.33;;;19.02;;
37701;SDS011;23548;51.196;6.838;2023-05-21T11:50:00;23.35;;;19.52;;
37701;SDS011;23548;51.196;6.838;2023-05-21T11:52:27;23.10;;;17.75;;
37701;SDS011;23548;51.196;6.838;2023-05-21T11:54:54;23.50;;;19.42;;
37701;SDS011;23548;51.196;6.838;2023-05-21T11:57:22;22.67;;;18.58;;
37701;SDS011;23548;51.196;6.838;2023-05-21T11:59:50;24.63;;;19.30;;
37701;SDS011;23548;51.196;6.838;2023-05-21T12:02:17;24.20;;;20.23;;
37701;SDS011;23548;51.196;6.838;2023-05-21T12:04:45;25.23;;;19.92;;
37701;SDS011;23548;51.196;6.838;2023-05-21T12:07:12;24.23;;;19.33;;
37701;SDS011;23548;51.196;6.838;2023-05-21T12:12:09;23.38;;;19.23;;
37701;SDS011;23548;51.196;6.838;2023-05-21T12:14:37;20.77;;;18.38;;
37701;SDS011;23548;51.196;6.838;2023-05-21T12:17:03;23.45;;;19.23;;
37701;SDS011;23548;51.196;6.838;2023-05-21T12:19:34;21.92;;;19.45;;
37701;SDS011;23548;51.196;6.838;2023-05-21T12:22:05;25.38;;;19.30;;
37701;SDS011;23548;51.196;6.838;2023-05-21T12:24:35;20.80;;;17.48;;
37701;SDS011;23548;51.196;6.838;2023-05-21T12:27:02;22.02;;;18.73;;
37701;SDS011;23548;51.196;6.838;2023-05-21T12:29:34;27.42;;;18.90;;
37701;SDS011;23548;51.196;6.838;2023-05-21T12:32:03;24.23;;;18.30;;
37701;SDS011;23548;51.196;6.838;2023-05-21T12:34:43;26.48;;;18.58;;
37701;SDS011;23548;51.196;6.838;2023-05-21T12:37:31;23.10;;;18.13;;
37701;SDS011;23548;51.196;6.838;2023-05-21T12:40:00;19.95;;;17.67;;
37701;SDS011;23548;51.196;6.838;2023-05-21T12:42:31;22.73;;;18.25;;
37701;SDS011;23548;51.196;6.838;2023-05-21T12:45:04;25.58;;;18.63;;
37701;SDS011;23548;51.196;6.838;2023-05-21T12:47:31;24.77;;;19.70;;
37701;SDS011;23548;51.196;6.838;2023-05-21T12:49:58;21.92;;;18.48;;
37701;SDS011;23548;51.196;6.838;2023-05-21T12:52:28;21.65;;;19.13;;
37701;SDS011;23548;51.196;6.838;2023-05-21T12:54:57;22.67;;;19.38;;
37701;SDS011;23548;51.196;6.838;2023-05-21T12:57:29;21.83;;;16.85;;
37701;SDS011;23548;51.196;6.838;2023-05-21T13:00:03;21.70;;;18.45;;
37701;SDS011;23548;51.196;6.838;2023-05-21T13:02:44;21.58;;;17.80;;
37701;SDS011;23548;51.196;6.838;2023-05-21T13:05:15;20.55;;;16.85;;
37701;SDS011;23548;51.196;6.838;2023-05-21T13:07:42;29.67;;;17.65;;
37701;SDS011;23548;51.196;6.838;2023-05-21T13:10:11;37.97;;;18.23;;
37701;SDS011;23548;51.196;6.838;2023-05-21T13:12:37;26.13;;;17.33;;
37701;SDS011;23548;51.196;6.838;2023-05-21T13:15:03;20.33;;;17.92;;
37701;SDS011;23548;51.196;6.838;2023-05-21T13:17:32;20.98;;;17.48;;
37701;SDS011;23548;51.196;6.838;2023-05-21T13:20:17;21.85;;;18.95;;
37701;SDS011;23548;51.196;6.838;2023-05-21T13:22:50;27.75;;;19.38;;
37701;SDS011;23548;51.196;6.838;2023-05-21T13:25:17;23.05;;;18.65;;
37701;SDS011;23548;51.196;6.838;2023-05-21T13:27:45;22.45;;;18.27;;
37701;SDS011;23548;51.196;6.838;2023-05-21T13:30:12;23.90;;;18.35;;
37701;SDS011;23548;51.196;6.838;2023-05-21T13:32:38;23.92;;;16.10;;
37701;SDS011;23548;51.196;6.838;2023-05-21T13:35:05;22.25;;;17.90;;
37701;SDS011;23548;51.196;6.838;2023-05-21T13:37:32;19.98;;;16.73;;
37701;SDS011;23548;51.196;6.838;2023-05-21T13:40:01;18.45;;;16.15;;
37701;SDS011;23548;51.196;6.838;2023-05-21T13:42:31;19.02;;;16.52;;
37701;SDS011;23548;51.196;6.838;2023-05-21T13:44:57;19.50;;;17.40;;
37701;SDS011;23548;51.196;6.838;2023-05-21T13:47:23;18.73;;;16.52;;
37701;SDS011;23548;51.196;6.838;2023-05-21T13:49:50;21.50;;;16.60;;
37701;SDS011;23548;51.196;6.838;2023-05-21T13:52:16;21.88;;;16.60;;
37701;SDS011;23548;51.196;6.838;2023-05-21T13:54:42;21.42;;;15.55;;
37701;SDS011;23548;51.196;6.838;2023-05-21T13:57:07;18.60;;;16.80;;
37701;SDS011;23548;51.196;6.838;2023-05-21T13:59:33;17.75;;;15.95;;
37701;SDS011;23548;51.196;6.838;2023-05-21T14:01:59;19.45;;;17.15;;
37701;SDS011;23548;51.196;6.838;2023-05-21T14:04:25;18.88;;;17.02;;
37701;SDS011;23548;51.196;6.838;2023-05-21T14:06:51;17.80;;;15.98;;
37701;SDS011;23548;51.196;6.838;2023-05-21T14:09:17;17.20;;;15.02;;
37701;SDS011;23548;51.196;6.838;2023-05-21T14:11:43;17.48;;;15.52;;
37701;SDS011;23548;51.196;6.838;2023-05-21T14:14:09;18.55;;;16.60;;
37701;SDS011;23548;51.196;6.838;2023-05-21T14:16:38;19.42;;;16.98;;
37701;SDS011;23548;51.196;6.838;2023-05-21T14:19:03;21.40;;;18.13;;
37701;SDS011;23548;51.196;6.838;2023-05-21T14:21:29;19.17;;;16.92;;
37701;SDS011;23548;51.196;6.838;2023-05-21T14:23:55;18.17;;;16.00;;
37701;SDS011;23548;51.196;6.838;2023-05-21T14:26:21;22.15;;;18.88;;
37701;SDS011;23548;51.196;6.838;2023-05-21T14:28:46;21.25;;;18.58;;
37701;SDS011;23548;51.196;6.838;2023-05-21T14:31:13;23.83;;;18.63;;
37701;SDS011;23548;51.196;6.838;2023-05-21T14:33:39;21.33;;;17.77;;
37701;SDS011;23548;51.196;6.838;2023-05-21T14:36:05;21.17;;;17.67;;
37701;SDS011;23548;51.196;6.838;2023-05-21T14:38:31;19.77;;;17.67;;
37701;SDS011;23548;51.196;6.838;2023-05-21T14:40:57;18.73;;;16.73;;
37701;SDS011;23548;51.196;6.838;2023-05-21T14:43:22;22.50;;;17.67;;
37701;SDS011;23548;51.196;6.838;2023-05-21T14:45:48;20.80;;;17.17;;
37701;SDS011;23548;51.196;6.838;2023-05-21T14:48:17;21.05;;;18.75;;
37701;SDS011;23548;51.196;6.838;2023-05-21T14:50:47;21.63;;;19.33;;
37701;SDS011;23548;51.196;6.838;2023-05-21T14:53:14;21.50;;;19.17;;